M I D A S
Marine Information and Data Acquisition System
Tripno 527 of the Zeeleeuw from 2003-06-30 06:33:44 to 2003-06-30 15:02:40
Back to CruiseResearch ActivitiesStationsMapUnderway DataData graphs

EquipmentUnitsComment
TimeDGPSUTC
LatitudeDGPSDM.mWGS84
LongitudeDGPSDM.mWGS84
HeadingGyrodeg 
SOGDGPSknotsSpeed over ground
COGDGPSdegCourse over ground
DepthEcho soundermeters200 kHz
Missing or incorrect values are displayed as -999
Navigation data collected by the RV Zeeleeuw from 2003-06-30 06:33:44 to 2003-06-30 15:02:40
Time Latitude Longitude Heading SOG COG Depth
2003-06-30 06:34:46 51°13.59 2°56.12 127.7 0.1 51 6.7
2003-06-30 06:35:48 51°13.59 2°56.12 119 0.1 196 6.8
2003-06-30 06:36:46 51°13.59 2°56.12 111.4 0.2 284 6.7
2003-06-30 06:37:46 51°13.6 2°56.1 112.9 0.8 297 6.2
2003-06-30 06:38:48 51°13.61 2°56.05 113.9 3.3 291 -999
2003-06-30 06:39:48 51°13.64 2°55.94 117.8 5.3 295 -999
2003-06-30 06:40:48 51°13.66 2°55.83 98.3 3.6 280 9.2
2003-06-30 06:41:46 51°13.66 2°55.77 67.1 0.5 281 8.1
2003-06-30 06:42:48 51°13.69 2°55.77 7.5 2.7 356 12.1
2003-06-30 06:43:48 51°13.75 2°55.72 332.9 5.4 328 9.7
2003-06-30 06:44:46 51°13.84 2°55.64 339.3 7.1 335 9.5
2003-06-30 06:45:46 51°13.95 2°55.56 342.7 8.8 337 9.5
2003-06-30 06:46:48 51°14.1 2°55.45 336.4 9.6 331 9.8
2003-06-30 06:47:48 51°14.23 2°55.31 323.8 9.6 318 9.9
2003-06-30 06:48:46 51°14.33 2°55.12 313.6 10.4 309 8.8
2003-06-30 06:49:46 51°14.46 2°54.91 321.3 11.1 311 8.6
2003-06-30 06:50:48 51°14.6 2°54.71 338.2 10.8 328 8.4
2003-06-30 06:51:46 51°14.76 2°54.59 351.2 11.5 341 8.1
2003-06-30 06:52:46 51°14.95 2°54.53 1.5 11.5 353 7.7
2003-06-30 06:53:52 51°15.15 2°54.48 358.6 11.4 348 7.3
2003-06-30 06:54:52 51°15.34 2°54.4 357.7 11.6 348 7.8
2003-06-30 06:55:52 51°15.53 2°54.38 10.4 11.4 1 8.4
2003-06-30 06:56:52 51°15.72 2°54.38 7 11.4 357 9
2003-06-30 06:57:52 51°15.91 2°54.36 1.5 11.6 349 9.6
2003-06-30 06:58:52 51°16.09 2°54.29 4 10.9 352 10.2
2003-06-30 06:59:52 51°16.23 2°54.23 353.8 6.3 337 10.5
2003-06-30 07:00:52 51°16.27 2°54.19 37.7 1.3 269 10.7
2003-06-30 07:01:54 51°16.27 2°54.16 50 0.9 281 10.6
2003-06-30 07:02:54 51°16.27 2°54.15 59.8 0.5 284 10.6
2003-06-30 07:03:54 51°16.28 2°54.14 63.3 0.3 294 10.6
2003-06-30 07:05:00 51°16.28 2°54.13 66.1 0.2 308 10.7
2003-06-30 07:06:00 51°16.28 2°54.12 68.8 0.1 302 10.7
2003-06-30 07:07:00 51°16.28 2°54.12 73 0.1 214 10.7
2003-06-30 07:08:00 51°16.28 2°54.12 74.2 0.1 184 10.6
2003-06-30 07:09:00 51°16.28 2°54.12 74 0.1 192 10.7
2003-06-30 07:10:00 51°16.28 2°54.12 75 0.2 187 10.7
2003-06-30 07:11:00 51°16.27 2°54.14 92.2 2.3 109 10.7
2003-06-30 07:12:00 51°16.22 2°54.2 155.3 5.6 171 10.6
2003-06-30 07:13:00 51°16.1 2°54.09 241.7 9.7 241 10.4
2003-06-30 07:14:00 51°16.13 2°53.85 321.4 10.2 309 10.6
2003-06-30 07:15:00 51°16.27 2°53.65 332.3 12.1 319 10.7
2003-06-30 07:16:00 51°16.43 2°53.41 331.1 13.8 318 11
2003-06-30 07:17:00 51°16.61 2°53.17 332.5 13.8 321 10.4
2003-06-30 07:18:00 51°16.79 2°52.94 331.2 13.4 322 8.8
2003-06-30 07:19:00 51°16.96 2°52.73 332.3 13.1 322 8.2
2003-06-30 07:20:00 51°17.13 2°52.51 332.3 13.2 322 8.4
2003-06-30 07:21:00 51°17.3 2°52.29 331.9 13.5 321 9.2
2003-06-30 07:22:00 51°17.48 2°52.06 331.3 13.4 320 9.2
2003-06-30 07:23:00 51°17.65 2°51.84 330.9 13.3 321 9
2003-06-30 07:24:00 51°17.82 2°51.62 331.7 13.3 321 8.9
2003-06-30 07:25:00 51°17.99 2°51.39 332 13.6 322 9.9
2003-06-30 07:26:00 51°18.16 2°51.16 331.9 12 319 11.4
2003-06-30 07:27:00 51°18.3 2°50.96 331.6 11.4 318 12.2
2003-06-30 07:28:00 51°18.43 2°50.83 357.8 6.5 339 12.9
2003-06-30 07:29:00 51°18.5 2°50.82 29.1 3.1 7 13.2
2003-06-30 07:30:00 51°18.54 2°50.84 48.7 1.9 32 13.2
2003-06-30 07:31:00 51°18.56 2°50.87 70.1 1.3 79 13.2
2003-06-30 07:32:00 51°18.55 2°50.89 85.4 0.8 160 13.1
2003-06-30 07:33:00 51°18.53 2°50.9 97.2 1.3 188 13.2
2003-06-30 07:34:00 51°18.51 2°50.89 105.8 1.6 188 13.1
2003-06-30 07:35:00 51°18.48 2°50.88 112 1.8 204 13
2003-06-30 07:36:00 51°18.45 2°50.86 117.3 1.8 204 13.1
2003-06-30 07:37:00 51°18.43 2°50.84 117.7 1.8 187 12.9
2003-06-30 07:38:00 51°18.39 2°50.86 103.7 2.8 128 12.8
2003-06-30 07:39:00 51°18.4 2°50.97 70.2 7.1 71 12.7
2003-06-30 07:40:00 51°18.46 2°51.18 66.6 9.7 65 12.6
2003-06-30 07:41:00 51°18.54 2°51.45 66.9 12.1 65 12.5
2003-06-30 07:42:00 51°18.63 2°51.75 69.2 12.3 67 12.1
2003-06-30 07:43:00 51°18.7 2°52.05 69.6 12.2 68 11.7
2003-06-30 07:44:00 51°18.78 2°52.35 69.2 12.3 67 11.4
2003-06-30 07:45:00 51°18.86 2°52.65 69 12.3 67 11.2
2003-06-30 07:46:00 51°18.94 2°52.95 69.4 12.3 67 11
2003-06-30 07:47:00 51°19.03 2°53.25 69.6 12.3 67 10.9
2003-06-30 07:48:00 51°19.11 2°53.55 68.9 12.3 67 11.2
2003-06-30 07:49:00 51°19.19 2°53.86 69 12.4 67 11.1
2003-06-30 07:50:00 51°19.27 2°54.16 69 12.4 67 11
2003-06-30 07:51:00 51°19.35 2°54.46 69.5 12.4 68 11
2003-06-30 07:52:00 51°19.42 2°54.77 70.1 12.4 68 11.1
2003-06-30 07:53:04 51°19.51 2°55.09 68.9 12.3 67 11.2
2003-06-30 07:54:04 51°19.59 2°55.39 69.1 12.3 67 11.1
2003-06-30 07:55:04 51°19.67 2°55.69 69 12.5 66 11.1
2003-06-30 07:56:04 51°19.75 2°56 69.7 12.4 67 11
2003-06-30 07:57:04 51°19.83 2°56.3 69.4 12.3 67 11
2003-06-30 07:58:04 51°19.91 2°56.6 69.2 12.3 67 10.9
2003-06-30 07:59:04 51°20 2°56.89 69.4 12.2 67 10.7
2003-06-30 08:00:04 51°20.08 2°57.19 70.7 12.2 69 10.7
2003-06-30 08:01:04 51°20.14 2°57.5 74.3 12.3 72 10.6
2003-06-30 08:02:04 51°20.2 2°57.81 74.3 12.2 72 10.5
2003-06-30 08:03:04 51°20.26 2°58.13 74.3 12.2 72 10.4
2003-06-30 08:04:04 51°20.32 2°58.43 74.3 12.2 72 10.3
2003-06-30 08:05:04 51°20.38 2°58.74 74.6 12.1 73 10.1
2003-06-30 08:06:04 51°20.44 2°59.05 74.7 12.2 73 10
2003-06-30 08:07:04 51°20.5 2°59.36 74.7 12.1 73 10
2003-06-30 08:08:04 51°20.56 2°59.67 74.7 12.1 73 9.9
2003-06-30 08:09:04 51°20.62 2°59.97 74.1 12.1 72 9.8
2003-06-30 08:10:04 51°20.68 3°0.28 74.1 12 72 9.7
2003-06-30 08:11:04 51°20.74 3°0.59 74 12.1 72 9.7
2003-06-30 08:12:04 51°20.8 3°0.89 74.3 12.3 73 9.7
2003-06-30 08:13:04 51°20.87 3°1.2 74.8 12.3 73 9.7
2003-06-30 08:14:04 51°20.93 3°1.51 69.6 12.2 66 9.7
2003-06-30 08:15:04 51°21.01 3°1.81 69.6 12.1 66 9.7
2003-06-30 08:16:04 51°21.1 3°2.11 69.3 12.2 66 9.8
2003-06-30 08:17:04 51°21.18 3°2.4 69.3 12.2 66 10
2003-06-30 08:18:04 51°21.26 3°2.7 69.2 12.2 66 10.1
2003-06-30 08:19:04 51°21.34 3°2.99 69.1 11.9 66 10.2
2003-06-30 08:20:04 51°21.42 3°3.28 69.4 11.9 67 10.3
2003-06-30 08:21:04 51°21.5 3°3.57 69.1 12.1 65 10.4
2003-06-30 08:22:04 51°21.59 3°3.86 68.9 12.1 65 10.5
2003-06-30 08:23:04 51°21.67 3°4.16 68.9 12.1 66 10.6
2003-06-30 08:24:04 51°21.75 3°4.45 69.4 12.1 66 10.7
2003-06-30 08:25:04 51°21.82 3°4.75 75.2 12.2 73 10.8
2003-06-30 08:26:04 51°21.88 3°5.06 74.6 12.1 72 10.9
2003-06-30 08:27:04 51°21.95 3°5.37 74.1 12.1 71 11
2003-06-30 08:28:04 51°22.01 3°5.67 74.8 12.1 72 11
2003-06-30 08:29:04 51°22.08 3°5.98 77 12.1 75 11.2
2003-06-30 08:30:04 51°22.12 3°6.29 79.5 12.1 77 11.3
2003-06-30 08:31:04 51°22.17 3°6.6 79.8 12.1 77 11.5
2003-06-30 08:32:04 51°22.22 3°6.92 79.1 12.2 76 11.3
2003-06-30 08:33:04 51°22.26 3°7.23 79.2 12.2 76 11.6
2003-06-30 08:34:04 51°22.33 3°7.54 73.7 12.3 70 11.6
2003-06-30 08:35:04 51°22.39 3°7.86 89.5 12.2 90 11.6
2003-06-30 08:36:04 51°22.35 3°8.18 95.9 12.6 95 11.7
2003-06-30 08:37:04 51°22.36 3°8.51 88.4 12.5 86 11.8
2003-06-30 08:38:04 51°22.38 3°8.85 90.1 12.6 88 12
2003-06-30 08:39:04 51°22.38 3°9.18 91.1 12.6 89 12.1
2003-06-30 08:40:04 51°22.38 3°9.52 88.9 12.6 87 12.5
2003-06-30 08:41:04 51°22.39 3°9.85 89.5 12.7 88 12.7
2003-06-30 08:42:04 51°22.4 3°10.19 88.4 12.7 86 14
2003-06-30 08:43:04 51°22.42 3°10.53 89.3 12.9 86 17.1
2003-06-30 08:44:04 51°22.43 3°10.87 89.7 12.8 87 14.6
2003-06-30 08:45:04 51°22.44 3°11.21 88.7 12.7 85 14.8
2003-06-30 08:46:04 51°22.46 3°11.54 89.2 12.5 85 14.6
2003-06-30 08:47:04 51°22.47 3°11.87 89.7 12.6 86 14
2003-06-30 08:48:04 51°22.49 3°12.21 89.5 12.8 85 13.6
2003-06-30 08:49:04 51°22.5 3°12.55 89.2 12.8 85 13.2
2003-06-30 08:50:04 51°22.53 3°12.84 80.6 9.2 75 12.5
2003-06-30 08:51:04 51°22.55 3°13.04 98 5.5 95 12.2
2003-06-30 08:52:04 51°22.53 3°13.13 111.1 1.4 113 12.1
2003-06-30 08:53:04 51°22.52 3°13.13 99.4 0.3 196 12.1
2003-06-30 08:54:04 51°22.52 3°13.13 85.7 0.2 82 12.1
2003-06-30 08:55:04 51°22.53 3°13.14 66.4 0.6 24 12.1
2003-06-30 08:56:04 51°22.54 3°13.15 54.3 1 19 12.1
2003-06-30 08:57:04 51°22.56 3°13.15 50.8 1 12 12
2003-06-30 08:58:04 51°22.57 3°13.16 49.9 0.8 1 12
2003-06-30 08:59:04 51°22.58 3°13.15 43.9 0.9 351 11.9
2003-06-30 09:00:04 51°22.61 3°13.14 15.8 1.7 336 11.9
2003-06-30 09:01:04 51°22.63 3°13.12 4.1 2.1 323 12
2003-06-30 09:02:04 51°22.66 3°13.08 3.9 2.1 324 12.1
2003-06-30 09:03:04 51°22.69 3°13.06 12.3 1.9 332 12
2003-06-30 09:04:04 51°22.72 3°13.03 12.7 1.9 332 12
2003-06-30 09:05:04 51°22.75 3°13.01 11.7 2 331 11.9
2003-06-30 09:06:04 51°22.77 3°12.98 13.7 2 333 11.8
2003-06-30 09:07:04 51°22.8 3°12.96 17.8 1.9 337 11.6
2003-06-30 09:08:04 51°22.83 3°12.94 23.2 1.7 344 11.4
2003-06-30 09:09:04 51°22.86 3°12.93 29.3 2 1 11.5
2003-06-30 09:10:04 51°22.94 3°12.98 34 8.1 24 11.2
2003-06-30 09:11:04 51°23.1 3°13.12 39.8 12.5 32 10.6
2003-06-30 09:12:04 51°23.27 3°13.31 44.7 12.8 38 11.1
2003-06-30 09:13:04 51°23.43 3°13.54 50.2 12.9 43 10.9
2003-06-30 09:14:04 51°23.59 3°13.78 49.3 13 44 11.2
2003-06-30 09:15:04 51°23.74 3°14.03 52 12.9 46 10.7
2003-06-30 09:16:04 51°23.88 3°14.28 52.8 12.9 47 10.1
2003-06-30 09:17:04 51°24.03 3°14.54 52 13.2 47 9.8
2003-06-30 09:18:04 51°24.18 3°14.8 52.7 13.5 47 11.9
2003-06-30 09:19:04 51°24.33 3°15.06 52 13.6 46 14.4
2003-06-30 09:20:04 51°24.49 3°15.32 51.9 13.7 47 17.5
2003-06-30 09:21:04 51°24.65 3°15.59 51.9 13.8 47 18.1
2003-06-30 09:22:04 51°24.8 3°15.86 52.1 13.8 47 16.1
2003-06-30 09:23:04 51°24.95 3°16.14 51.9 13.6 49 14
2003-06-30 09:24:04 51°25.1 3°16.41 52.2 13.6 49 12.9
2003-06-30 09:25:04 51°25.25 3°16.68 52 13.4 49 10.5
2003-06-30 09:26:04 51°25.39 3°16.95 52.1 13.3 50 9.4
2003-06-30 09:27:04 51°25.53 3°17.22 52.3 13.3 50 9
2003-06-30 09:28:04 51°25.66 3°17.47 52.5 10.4 51 9
2003-06-30 09:29:04 51°25.75 3°17.66 55.2 7.8 56 8.8
2003-06-30 09:30:04 51°25.82 3°17.77 27.6 4.2 30 8.7
2003-06-30 09:31:04 51°25.86 3°17.8 37.2 1 54 8.6
2003-06-30 09:32:04 51°25.87 3°17.82 54.9 0.8 86 8.6
2003-06-30 09:33:04 51°25.86 3°17.84 58.5 0.7 102 8.7
2003-06-30 09:34:04 51°25.86 3°17.85 60.4 0.5 110 8.7
2003-06-30 09:35:04 51°25.86 3°17.87 59.2 0.5 117 8.7
2003-06-30 09:36:04 51°25.85 3°17.88 55.7 0.4 126 8.8
2003-06-30 09:37:04 51°25.85 3°17.88 52.9 0.4 133 8.8
2003-06-30 09:38:04 51°25.86 3°17.91 24.6 2.8 26 8.8
2003-06-30 09:39:04 51°25.92 3°17.84 295.3 6.4 285 8.5
2003-06-30 09:40:04 51°25.9 3°17.61 259.3 10.9 251 8.2
2003-06-30 09:41:04 51°25.79 3°17.36 228.2 12.5 223 8.3
2003-06-30 09:42:04 51°25.64 3°17.12 230.6 13.1 225 8.8
2003-06-30 09:43:04 51°25.48 3°16.86 230.7 13.9 225 9.1
2003-06-30 09:44:04 51°25.33 3°16.57 240.2 14.1 234 10.2
2003-06-30 09:45:04 51°25.19 3°16.27 240.3 14.1 235 11.9
2003-06-30 09:46:04 51°25.13 3°15.91 267.4 13.7 261 13.2
2003-06-30 09:47:04 51°25.1 3°15.55 268.2 13.8 262 13.5
2003-06-30 09:48:04 51°25.07 3°15.19 269.2 13.8 263 13.6
2003-06-30 09:49:04 51°25.04 3°14.82 273.1 13.7 267 13.5
2003-06-30 09:50:04 51°25.03 3°14.46 272.1 13.8 266 13.5
2003-06-30 09:51:04 51°25.02 3°14.1 275.5 13.7 269 12.9
2003-06-30 09:52:04 51°25.02 3°13.73 275.3 13.7 270 12.6
2003-06-30 09:53:04 51°25.02 3°13.37 275.5 13.7 269 12.9
2003-06-30 09:54:04 51°25.01 3°13 275.1 13.7 269 12.4
2003-06-30 09:55:04 51°25.04 3°12.65 293.2 13.4 287 11.6
2003-06-30 09:56:04 51°25.13 3°12.32 305.5 13.3 299 10.7
2003-06-30 09:57:04 51°25.24 3°12.01 309.4 13.3 303 10
2003-06-30 09:58:04 51°25.39 3°11.76 323.3 13.1 317 9.6
2003-06-30 09:59:04 51°25.56 3°11.55 342.6 12.6 337 8.8
2003-06-30 10:00:04 51°25.75 3°11.42 337.5 11.7 330 7.3
2003-06-30 10:01:04 51°25.89 3°11.24 318.3 10.9 307 7.6
2003-06-30 10:02:04 51°25.96 3°10.97 298.8 10.9 289 7.9
2003-06-30 10:03:04 51°26.03 3°10.67 298.9 12.5 290 8
2003-06-30 10:04:04 51°26.09 3°10.35 292.6 12.9 284 8.1
2003-06-30 10:05:04 51°26.15 3°10.02 293.1 13.1 284 8.4
2003-06-30 10:06:04 51°26.2 3°9.68 293.9 13.1 285 8.7
2003-06-30 10:07:04 51°26.26 3°9.34 293.8 13.3 285 9.1
2003-06-30 10:08:04 51°26.32 3°9 293.8 13.4 285 9.8
2003-06-30 10:09:04 51°26.39 3°8.68 302.6 10.7 292 10.5
2003-06-30 10:10:04 51°26.44 3°8.47 303.1 6.7 290 10.9
2003-06-30 10:11:04 51°26.47 3°8.35 309.7 2.5 285 11.2
2003-06-30 10:12:04 51°26.46 3°8.32 334.5 0.8 253 11.1
2003-06-30 10:13:04 51°26.46 3°8.3 337.4 0.7 250 11
2003-06-30 10:14:04 51°26.46 3°8.29 342.2 0.5 248 11.1
2003-06-30 10:15:04 51°26.45 3°8.28 346.2 0.5 244 11
2003-06-30 10:16:04 51°26.45 3°8.27 349.7 0.4 232 11.1
2003-06-30 10:17:04 51°26.44 3°8.26 354.2 0.5 226 11
2003-06-30 10:18:04 51°26.44 3°8.25 0.2 0.5 220 11
2003-06-30 10:19:04 51°26.46 3°8.24 354.1 4.4 344 11
2003-06-30 10:20:04 51°26.54 3°8.06 306.2 11.4 297 10.5
2003-06-30 10:21:04 51°26.64 3°7.77 307.2 13.2 298 10.8
2003-06-30 10:22:04 51°26.74 3°7.45 307 13.3 298 11.2
2003-06-30 10:23:04 51°26.85 3°7.14 309.4 13.3 300 11.9
2003-06-30 10:24:04 51°26.96 3°6.84 309.9 13.3 301 12.4
2003-06-30 10:25:04 51°27.08 3°6.53 309.1 13.3 300 13.1
2003-06-30 10:26:04 51°27.19 3°6.23 309.1 13.4 300 13.4
2003-06-30 10:27:04 51°27.3 3°5.92 309.1 13.4 300 13.9
2003-06-30 10:28:04 51°27.42 3°5.61 309.6 13.4 301 14.4
2003-06-30 10:29:04 51°27.53 3°5.31 309.2 13.4 301 14.6
2003-06-30 10:30:04 51°27.65 3°5 309 13.4 301 14.5
2003-06-30 10:31:04 51°27.76 3°4.7 309.1 13.4 301 14.1
2003-06-30 10:32:04 51°27.88 3°4.39 309.2 13.5 301 16.5
2003-06-30 10:33:04 51°27.99 3°4.08 309 13.5 301 18.6
2003-06-30 10:34:04 51°28.09 3°3.83 318.3 7.9 307 20.5
2003-06-30 10:35:04 51°28.16 3°3.69 319.3 6.7 308 21.5
2003-06-30 10:36:04 51°28.23 3°3.55 317.7 7.2 307 22.4
2003-06-30 10:37:04 51°28.27 3°3.46 326.3 1 252 23
2003-06-30 10:38:04 51°28.26 3°3.44 318.4 0.9 249 23
2003-06-30 10:39:04 51°28.26 3°3.42 311.7 0.8 250 23.1
2003-06-30 10:40:04 51°28.25 3°3.39 301.9 1 248 23.1
2003-06-30 10:41:04 51°28.25 3°3.37 296.9 0.9 250 23.2
2003-06-30 10:42:04 51°28.24 3°3.35 289.7 0.9 246 23.3
2003-06-30 10:43:04 51°28.24 3°3.32 284.5 2.8 269 23.3
2003-06-30 10:44:04 51°28.22 3°3.13 268 11.3 262 23.6
2003-06-30 10:45:04 51°28.18 3°2.78 264.9 13.7 259 24.1
2003-06-30 10:46:04 51°28.12 3°2.43 259.5 13.9 254 24.3
2003-06-30 10:47:04 51°28.05 3°2.08 259.5 13.9 253 24.3
2003-06-30 10:48:04 51°27.99 3°1.72 259.8 14 254 24.3
2003-06-30 10:49:04 51°27.92 3°1.36 260.2 14.2 253 24.4
2003-06-30 10:50:04 51°27.86 3°1 260.8 14.1 256 23.8
2003-06-30 10:51:04 51°27.8 3°0.64 260.7 14.1 254 23.2
2003-06-30 10:52:04 51°27.73 3°0.28 259.7 14.2 253 21
2003-06-30 10:53:04 51°27.66 2°59.92 260.4 14.1 254 20.3
2003-06-30 10:54:04 51°27.6 2°59.55 260.3 14.2 253 20.2
2003-06-30 10:55:04 51°27.54 2°59.19 263.2 14.1 256 20.1
2003-06-30 10:56:04 51°27.49 2°58.83 264.1 14.1 258 18.3
2003-06-30 10:57:04 51°27.43 2°58.46 264.4 14 257 17.4
2003-06-30 10:58:04 51°27.38 2°58.1 264.5 14.1 257 20.8
2003-06-30 10:59:04 51°27.33 2°57.73 264.2 14.2 259 23.8
2003-06-30 11:00:04 51°27.28 2°57.36 265.1 14.2 259 25.7
2003-06-30 11:01:04 51°27.23 2°56.99 264.9 14.2 259 24.9
2003-06-30 11:02:04 51°27.18 2°56.62 264.1 14.2 259 23
2003-06-30 11:03:04 51°27.14 2°56.25 264.1 14.2 260 28.3
2003-06-30 11:04:04 51°27.09 2°55.87 264.4 14.4 260 30.2
2003-06-30 11:05:04 51°27.05 2°55.5 264 14.3 259 29.9
2003-06-30 11:06:04 51°27 2°55.13 264.2 14.2 259 27.8
2003-06-30 11:07:04 51°26.96 2°54.76 263.6 14.2 258 28.6
2003-06-30 11:08:04 51°26.92 2°54.39 263.7 14.1 259 25.1
2003-06-30 11:09:04 51°26.87 2°54.02 264.7 14.1 261 26
2003-06-30 11:10:04 51°26.83 2°53.65 263.4 14 258 27.9
2003-06-30 11:11:04 51°26.79 2°53.28 264.4 13.9 260 30
2003-06-30 11:12:04 51°26.75 2°52.92 263.7 13.9 258 29.3
2003-06-30 11:13:06 51°26.71 2°52.54 264.1 14 260 28.7
2003-06-30 11:14:04 51°26.67 2°52.18 263.3 13.7 258 28.9
2003-06-30 11:15:04 51°26.63 2°51.82 264.1 13.7 258 27.8
2003-06-30 11:16:04 51°26.59 2°51.47 264.9 13.3 259 26.1
2003-06-30 11:17:04 51°26.55 2°51.12 264.9 13.4 260 28.1
2003-06-30 11:18:04 51°26.51 2°50.77 264.7 13.4 259 24.6
2003-06-30 11:19:04 51°26.47 2°50.42 264.4 13.4 259 24.6
2003-06-30 11:20:04 51°26.43 2°50.07 261.8 13.5 257 24.4
2003-06-30 11:21:04 51°26.36 2°49.73 253.1 13.4 250 24.6
2003-06-30 11:22:04 51°26.28 2°49.4 253.3 13.4 248 24.5
2003-06-30 11:23:04 51°26.19 2°49.07 252.5 13.4 247 25
2003-06-30 11:24:04 51°26.1 2°48.76 249.3 11.9 245 25.4
2003-06-30 11:25:04 51°26.03 2°48.55 238.6 6.4 235 25.1
2003-06-30 11:26:04 51°25.99 2°48.48 221.8 1.7 219 25.3
2003-06-30 11:27:04 51°25.97 2°48.46 209 1 212 25.2
2003-06-30 11:28:04 51°25.96 2°48.45 203.4 0.7 203 25.3
2003-06-30 11:29:04 51°25.95 2°48.45 203.7 0.5 205 25.2
2003-06-30 11:30:04 51°25.95 2°48.44 204.4 0.4 206 25.1
2003-06-30 11:31:04 51°25.94 2°48.44 205.5 0.3 204 25.2
2003-06-30 11:32:04 51°25.94 2°48.44 206.1 0.2 209 25.2
2003-06-30 11:33:04 51°25.93 2°48.43 206.9 0.1 186 25.2
2003-06-30 11:34:04 51°25.93 2°48.43 207.7 0.1 187 25.4
2003-06-30 11:35:06 51°25.93 2°48.43 209 0.1 143 25.4
2003-06-30 11:36:04 51°25.93 2°48.44 210 0.1 153 25.3
2003-06-30 11:37:04 51°25.89 2°48.4 229.7 6.3 226 25.4
2003-06-30 11:38:04 51°25.8 2°48.17 244.7 12.6 242 25.3
2003-06-30 11:39:04 51°25.7 2°47.86 244.3 13.1 241 25.5
2003-06-30 11:40:04 51°25.6 2°47.55 245.2 13.1 242 27.3
2003-06-30 11:41:04 51°25.5 2°47.24 244.8 13.2 242 27.3
2003-06-30 11:42:04 51°25.39 2°46.94 244.8 13 241 27.2
2003-06-30 11:43:04 51°25.29 2°46.63 245.9 12.9 242 26.3
2003-06-30 11:44:04 51°25.2 2°46.32 245.5 13 241 27.5
2003-06-30 11:45:04 51°25.1 2°46.02 248.8 12.9 245 26.5
2003-06-30 11:46:04 51°25.02 2°45.7 249.1 12.9 249 27.2
2003-06-30 11:47:04 51°24.93 2°45.38 248.9 12.7 247 28.6
2003-06-30 11:48:04 51°24.85 2°45.07 248.8 12.7 247 26.7
2003-06-30 11:49:04 51°24.77 2°44.76 248.4 12.8 245 29.3
2003-06-30 11:50:04 51°24.68 2°44.44 248.9 12.9 248 28.7
2003-06-30 11:51:04 51°24.6 2°44.13 249.2 12.4 246 22.5
2003-06-30 11:52:04 51°24.53 2°43.82 251.6 12.6 249 26.5
2003-06-30 11:53:04 51°24.45 2°43.5 252.5 12.7 250 22.7
2003-06-30 11:54:04 51°24.39 2°43.19 252.3 12.6 250 26.6
2003-06-30 11:55:04 51°24.32 2°42.87 250.6 12.7 251 26
2003-06-30 11:56:04 51°24.25 2°42.55 253.3 12.8 254 29.5
2003-06-30 11:57:04 51°24.18 2°42.23 251 12.7 250 28.3
2003-06-30 11:58:04 51°24.11 2°41.91 253 12.8 251 26.9
2003-06-30 11:59:04 51°24.05 2°41.59 253.2 12.8 253 31.2
2003-06-30 12:00:04 51°23.98 2°41.27 251.6 12.6 249 31.2
2003-06-30 12:01:06 51°23.9 2°40.94 247.2 12.8 248 28.6
2003-06-30 12:02:04 51°23.82 2°40.64 247.5 12.8 246 31.4
2003-06-30 12:03:04 51°23.74 2°40.33 248.4 12.7 248 31.6
2003-06-30 12:04:04 51°23.66 2°40.02 248.5 12.5 250 31.1
2003-06-30 12:05:04 51°23.59 2°39.71 248.4 12.4 248 30.3
2003-06-30 12:06:04 51°23.51 2°39.41 247.3 12.1 247 29.6
2003-06-30 12:07:04 51°23.43 2°39.11 245.3 12.3 244 31.6
2003-06-30 12:08:06 51°23.34 2°38.81 244.2 12.3 243 31.4
2003-06-30 12:09:04 51°23.26 2°38.52 246.2 12.4 246 31.3
2003-06-30 12:10:04 51°23.17 2°38.22 245.2 12.3 246 27.3
2003-06-30 12:11:04 51°23.08 2°37.92 245 12.6 243 30.3
2003-06-30 12:12:06 51°22.99 2°37.61 245.2 12.5 246 30.9
2003-06-30 12:13:04 51°22.9 2°37.32 246.4 12.8 242 31.6
2003-06-30 12:14:04 51°22.81 2°37.03 244.8 12.3 244 30.1
2003-06-30 12:15:04 51°22.73 2°36.73 246.2 12.1 247 30.7
2003-06-30 12:16:06 51°22.64 2°36.42 246.1 12.3 245 28.5
2003-06-30 12:17:04 51°22.55 2°36.14 244.4 12.3 243 28.8
2003-06-30 12:18:04 51°22.46 2°35.85 240 12.4 238 31.5
2003-06-30 12:19:06 51°22.35 2°35.55 241.6 12.5 241 28.3
2003-06-30 12:20:06 51°22.25 2°35.26 242.5 12.3 241 30.8
2003-06-30 12:21:04 51°22.13 2°35 236.9 12.6 237 31.9
2003-06-30 12:22:04 51°22.01 2°34.72 236.8 12.7 235 29.2
2003-06-30 12:23:06 51°21.89 2°34.44 237.6 12.5 236 32.7
2003-06-30 12:24:04 51°21.77 2°34.17 236.9 12.6 235 32.5
2003-06-30 12:25:04 51°21.66 2°33.89 238 12.5 238 32.3
2003-06-30 12:26:06 51°21.54 2°33.61 235.8 12.5 234 31.7
2003-06-30 12:27:04 51°21.42 2°33.35 237.1 12.3 236 31.6
2003-06-30 12:28:06 51°21.3 2°33.07 237.8 12.6 236 30.6
2003-06-30 12:29:04 51°21.19 2°32.81 238 12.4 237 29.8
2003-06-30 12:30:06 51°21.07 2°32.53 236.2 12.5 234 29.5
2003-06-30 12:31:06 51°20.95 2°32.26 237.2 12.2 236 27.4
2003-06-30 12:32:04 51°20.84 2°32 238 12.2 236 24.6
2003-06-30 12:33:04 51°20.72 2°31.74 237.3 12.3 234 21.6
2003-06-30 12:34:06 51°20.59 2°31.47 237.9 12.1 232 19.9
2003-06-30 12:35:06 51°20.47 2°31.21 237.8 12.2 234 17.2
2003-06-30 12:36:04 51°20.35 2°30.97 237.3 11.8 232 17.8
2003-06-30 12:37:06 51°20.24 2°30.72 241.8 10.8 238 17.2
2003-06-30 12:38:06 51°20.16 2°30.47 252.5 10.6 250 16.2
2003-06-30 12:39:04 51°20.1 2°30.22 244.1 10.3 238 15.5
2003-06-30 12:40:04 51°20.07 2°30.05 264.7 4.5 269 14.9
2003-06-30 12:41:06 51°20.08 2°30 256.8 0.6 30 17.6
2003-06-30 12:42:06 51°20.09 2°30.03 253.3 1.7 59 15.7
2003-06-30 12:43:04 51°20.1 2°30.06 236 0.7 69 15.7
2003-06-30 12:44:04 51°20.1 2°30.07 215 0.9 136 16.8
2003-06-30 12:45:06 51°20.08 2°30.09 204.1 1.6 147 17
2003-06-30 12:46:06 51°20.06 2°30.12 193.2 2.1 141 15.5
2003-06-30 12:47:04 51°20.03 2°30.15 204.8 1.8 154 17
2003-06-30 12:48:04 51°20.01 2°30.15 236.6 1.1 209 16.1
2003-06-30 12:49:06 51°20 2°30.12 267.6 1.4 284 15.4
2003-06-30 12:50:06 51°20.06 2°30.06 344.5 6.2 1 15.1
2003-06-30 12:51:04 51°20.15 2°30.17 66.9 8.3 64 16.6
2003-06-30 12:52:06 51°20.13 2°30.41 132 9.7 120 16.2
2003-06-30 12:53:06 51°20.01 2°30.68 135.4 14.1 126 16
2003-06-30 12:54:04 51°19.87 2°30.97 137 14.1 128 23.5
2003-06-30 12:55:04 51°19.73 2°31.26 137.4 13.9 128 30.8
2003-06-30 12:56:04 51°19.59 2°31.56 137.5 13.8 128 32.1
2003-06-30 12:57:04 51°19.45 2°31.85 135.7 13.6 124 32.3
2003-06-30 12:58:04 51°19.31 2°32.13 137 13.4 126 32.8
2003-06-30 12:59:04 51°19.18 2°32.42 140.8 13.3 131 32
2003-06-30 13:00:04 51°19.04 2°32.69 141.3 13.4 131 31.9
2003-06-30 13:01:04 51°18.89 2°32.96 141.9 13.5 131 30.9
2003-06-30 13:02:04 51°18.75 2°33.24 142.4 13.5 132 26.5
2003-06-30 13:03:04 51°18.6 2°33.52 141.6 13.7 131 19.8
2003-06-30 13:04:04 51°18.45 2°33.8 141.5 13.7 130 20.3
2003-06-30 13:05:04 51°18.3 2°34.08 141.1 14.1 130 28
2003-06-30 13:06:04 51°18.16 2°34.36 141.3 13.9 129 29.7
2003-06-30 13:07:04 51°18.01 2°34.64 140.8 13.8 129 29.9
2003-06-30 13:08:04 51°17.87 2°34.94 136 14 124 20.1
2003-06-30 13:09:04 51°17.74 2°35.24 136.4 14 128 17.1
2003-06-30 13:10:04 51°17.6 2°35.54 136.8 14.1 128 13.1
2003-06-30 13:11:04 51°17.45 2°35.83 143.3 14 135 15.5
2003-06-30 13:12:04 51°17.27 2°36.06 155.5 13.5 148 21.9
2003-06-30 13:13:04 51°17.09 2°36.26 154.9 13.4 145 27.6
2003-06-30 13:14:04 51°16.91 2°36.47 155.2 13 144 29.8
2003-06-30 13:15:04 51°16.78 2°36.64 150.2 7.6 134 29
2003-06-30 13:16:04 51°16.72 2°36.76 156.3 4.6 131 28.3
2003-06-30 13:17:04 51°16.69 2°36.81 185.9 2.8 162 28.5
2003-06-30 13:18:04 51°16.64 2°36.78 224.1 2.7 221 28.5
2003-06-30 13:19:04 51°16.62 2°36.75 230.2 0.3 326 28.6
2003-06-30 13:20:04 51°16.63 2°36.75 239.1 0.7 350 28.4
2003-06-30 13:21:04 51°16.64 2°36.75 235.5 0.7 5 28.4
2003-06-30 13:22:04 51°16.65 2°36.75 228.6 0.6 10 28.4
2003-06-30 13:23:04 51°16.66 2°36.75 217.7 0.4 33 28.4
2003-06-30 13:24:04 51°16.66 2°36.76 207.3 0.4 72 28.6
2003-06-30 13:25:04 51°16.66 2°36.78 200.1 0.5 85 28.8
2003-06-30 13:26:04 51°16.66 2°36.79 191.6 0.8 94 28.8
2003-06-30 13:27:04 51°16.66 2°36.82 185.8 0.9 93 28.8
2003-06-30 13:28:04 51°16.66 2°36.84 179.2 1.1 91 28.8
2003-06-30 13:29:04 51°16.66 2°36.88 172 1.4 90 28.7
2003-06-30 13:30:04 51°16.66 2°36.91 164.6 1.5 90 28.6
2003-06-30 13:31:04 51°16.66 2°36.96 155.6 1.8 86 28.6
2003-06-30 13:32:04 51°16.67 2°37.01 146.6 2 83 28.7
2003-06-30 13:33:04 51°16.67 2°37.06 134.5 2.3 80 28.5
2003-06-30 13:34:04 51°16.68 2°37.13 132 3.5 101 28.8
2003-06-30 13:35:04 51°16.6 2°37.24 161.4 9.1 149 28.4
2003-06-30 13:36:04 51°16.43 2°37.36 166.9 12.6 158 27.1
2003-06-30 13:37:04 51°16.22 2°37.48 166.5 13.2 159 16.3
2003-06-30 13:38:04 51°16.02 2°37.6 167 13.2 160 12.6
2003-06-30 13:39:04 51°15.82 2°37.73 166.3 13.2 157 12.4
2003-06-30 13:40:04 51°15.61 2°37.85 165.2 13.4 156 12.9
2003-06-30 13:41:04 51°15.41 2°38.03 159.3 13.7 151 13
2003-06-30 13:42:04 51°15.21 2°38.2 159.6 13.7 152 15.1
2003-06-30 13:43:06 51°15 2°38.38 158 13.7 150 18.3
2003-06-30 13:44:04 51°14.81 2°38.54 159 13.5 152 19
2003-06-30 13:45:04 51°14.61 2°38.72 159.7 13.4 152 19.1
2003-06-30 13:46:04 51°14.42 2°38.88 160 13.5 153 20.1
2003-06-30 13:47:04 51°14.22 2°39.05 159.1 13.5 152 13.3
2003-06-30 13:48:04 51°14.01 2°39.2 162.3 13.5 156 16.1
2003-06-30 13:49:04 51°13.81 2°39.34 164.8 13.4 158 16.2
2003-06-30 13:50:04 51°13.6 2°39.47 163.9 13.4 157 16.1
2003-06-30 13:51:06 51°13.39 2°39.61 164.7 13.4 157 16.1
2003-06-30 13:52:04 51°13.19 2°39.74 163.9 13.3 158 17.4
2003-06-30 13:53:04 51°12.99 2°39.9 159 13.4 152 15.7
2003-06-30 13:54:06 51°12.79 2°40.08 158.8 13.4 151 15.2
2003-06-30 13:55:04 51°12.6 2°40.24 159.5 13.2 153 14.1
2003-06-30 13:56:04 51°12.41 2°40.41 158.3 13.4 152 13.1
2003-06-30 13:57:04 51°12.21 2°40.56 159.5 12.3 153 12.5
2003-06-30 13:58:06 51°12.04 2°40.7 159.5 10.4 152 11.6
2003-06-30 13:59:04 51°11.9 2°40.83 159.2 10 151 10.5
2003-06-30 14:00:04 51°11.76 2°40.96 159.1 10.1 150 10.5
2003-06-30 14:01:04 51°11.61 2°41.11 157.9 11.4 146 17.6
2003-06-30 14:02:04 51°11.47 2°41.32 138.8 12.2 129 14.9
2003-06-30 14:03:04 51°11.34 2°41.57 132.6 12.4 122 14
2003-06-30 14:04:04 51°11.28 2°41.89 104.8 12.2 97 14.1
2003-06-30 14:05:04 51°11.23 2°42.13 154.5 6.5 145 14.3
2003-06-30 14:06:04 51°11.17 2°42.14 231.3 2.7 222 14.5
2003-06-30 14:07:04 51°11.15 2°42.09 232.9 1.7 225 14.4
2003-06-30 14:08:04 51°11.13 2°42.08 222.6 0.6 185 14.4
2003-06-30 14:09:04 51°11.12 2°42.08 216 0.7 168 14.5
2003-06-30 14:10:04 51°11.11 2°42.09 205.7 0.7 141 14.5
2003-06-30 14:11:04 51°11.1 2°42.1 195.2 0.8 120 14.6
2003-06-30 14:12:04 51°11.09 2°42.12 184.2 1.1 109 14.5
2003-06-30 14:13:04 51°11.09 2°42.15 174.6 1 101 14.6
2003-06-30 14:14:04 51°11.09 2°42.18 165.8 1.1 94 14.7
2003-06-30 14:15:04 51°11.09 2°42.21 154.7 1.2 89 14.6
2003-06-30 14:16:04 51°11.09 2°42.24 140.5 1.3 84 14.7
2003-06-30 14:17:04 51°11.09 2°42.28 126.8 1.4 80 14.7
2003-06-30 14:18:04 51°11.1 2°42.32 113.5 2.2 84 14.7
2003-06-30 14:19:04 51°11.12 2°42.49 81.7 11.9 76 14.6
2003-06-30 14:20:04 51°11.17 2°42.85 83 14.6 78 14.7
2003-06-30 14:21:04 51°11.22 2°43.23 83.6 14.7 79 14.7
2003-06-30 14:22:04 51°11.27 2°43.61 83.7 14.7 78 14.8
2003-06-30 14:23:04 51°11.34 2°43.99 78.8 14.7 74 14.8
2003-06-30 14:24:04 51°11.4 2°44.36 79.3 14.7 73 14.7
2003-06-30 14:25:04 51°11.48 2°44.73 78.8 14.7 73 14.8
2003-06-30 14:26:04 51°11.55 2°45.1 79.4 14.6 73 14.8
2003-06-30 14:27:04 51°11.61 2°45.47 79.1 14.5 73 14.7
2003-06-30 14:28:04 51°11.69 2°45.84 78.7 14.6 73 14.8
2003-06-30 14:29:04 51°11.76 2°46.21 79.1 14.7 73 14.6
2003-06-30 14:30:04 51°11.83 2°46.58 77.1 14.6 71 14.6
2003-06-30 14:31:04 51°11.91 2°46.94 75.8 14.5 69 14.3
2003-06-30 14:32:04 51°12 2°47.3 73.2 14.6 67 14.3
2003-06-30 14:33:04 51°12.09 2°47.66 73.5 14.6 67 13.9
2003-06-30 14:34:04 51°12.19 2°48.01 71.4 14.6 65 13.7
2003-06-30 14:35:04 51°12.29 2°48.36 71 14.5 65 13.5
2003-06-30 14:36:04 51°12.4 2°48.71 70.6 14.6 64 13.2
2003-06-30 14:37:04 51°12.51 2°49.06 69.5 14.6 63 13.2
2003-06-30 14:38:04 51°12.61 2°49.4 69.3 14.6 63 13
2003-06-30 14:39:04 51°12.72 2°49.74 66.8 14.4 61 12.9
2003-06-30 14:40:04 51°12.84 2°50.08 67.1 14.5 62 12.7
2003-06-30 14:41:04 51°12.96 2°50.41 65.6 14.5 60 12.6
2003-06-30 14:42:04 51°13.08 2°50.74 64.7 14.5 59 12.4
2003-06-30 14:43:04 51°13.21 2°51.07 60.7 14.6 55 12.4
2003-06-30 14:44:04 51°13.35 2°51.39 60.8 14.6 56 12.4
2003-06-30 14:45:04 51°13.48 2°51.71 61.1 14.5 55 12.4
2003-06-30 14:46:04 51°13.62 2°52.02 61.7 14.6 56 12.4
2003-06-30 14:47:04 51°13.76 2°52.34 61.4 14.6 56 12.3
2003-06-30 14:48:04 51°13.89 2°52.67 60.7 14.6 55 12.2
2003-06-30 14:49:04 51°14.03 2°52.99 61.3 14.6 56 12
2003-06-30 14:50:04 51°14.16 2°53.31 63.4 14.6 58 11.7
2003-06-30 14:51:04 51°14.28 2°53.64 68.1 14.4 63 11.4
2003-06-30 14:52:04 51°14.37 2°53.97 80 13 74 11.2
2003-06-30 14:53:04 51°14.38 2°54.31 97.6 12.7 91 11.1
2003-06-30 14:54:04 51°14.38 2°54.65 100.8 12.6 94 11.8
2003-06-30 14:55:04 51°14.35 2°54.97 103.7 11.9 100 10.5
2003-06-30 14:56:04 51°14.28 2°55.23 133.5 9.2 130 12.8
2003-06-30 14:57:04 51°14.19 2°55.36 151.4 6 148 12.9
2003-06-30 14:58:04 51°14.11 2°55.42 157.7 4.5 153 12.7
2003-06-30 14:59:04 51°14.05 2°55.47 157.4 3.9 154 12.8
2003-06-30 15:00:04 51°13.97 2°55.54 155.6 6.4 152 12.9
2003-06-30 15:01:04 51°13.87 2°55.62 158.8 6.8 154 12
2003-06-30 15:02:04 51°13.77 2°55.69 154.5 6.2 150 12.6